Time;durP1;ratioP1;P1;durP2;ratioP2;P2;SDS_P1;SDS_P2;PMS_P1;PMS_P2;Temp;Humidity;BMP_temperature;BMP_pressure;BME280_temperature;BME280_humidity;BME280_pressure;Samples;Min_cycle;Max_cycle;Signal;HPM_P1;HPM_P2
2023/12/27 00:01:44;;;;;;;252.03;89.50;;;;;;;;;;5063185;28;20232;-48
2023/12/27 00:04:11;;;;;;;263.23;88.40;;;;;;;;;;5060762;28;20213;-48
2023/12/27 00:06:37;;;;;;;269.73;96.50;;;;;;;;;;5069075;28;20187;-48
2023/12/27 00:12:07;;;;;;;248.13;88.07;;;;;;;;;;5058635;28;20687;-48
2023/12/27 00:14:33;;;;;;;308.07;101.00;;;;;;;;;;5065552;28;20255;-48
2023/12/27 00:17:05;;;;;;;150.03;57.13;;;;;;;;;;5063556;28;20650;-49
2023/12/27 00:19:32;;;;;;;317.40;95.60;;;;;;;;;;5060081;28;20301;-48
2023/12/27 00:21:58;;;;;;;241.80;77.73;;;;;;;;;;5071818;28;20214;-49
2023/12/27 00:24:24;;;;;;;324.30;104.70;;;;;;;;;;5062271;28;20183;-49
2023/12/27 00:30:00;;;;;;;232.03;82.43;;;;;;;;;;5068266;28;20224;-49
2023/12/27 00:32:48;;;;;;;185.90;77.87;;;;;;;;;;5067002;28;20223;-49
2023/12/27 00:35:14;;;;;;;290.50;111.97;;;;;;;;;;5069945;28;20222;-49
2023/12/27 00:37:40;;;;;;;326.20;122.67;;;;;;;;;;5074454;28;20229;-49
2023/12/27 00:43:09;;;;;;;339.57;126.17;;;;;;;;;;5070864;28;20674;-48
2023/12/27 00:45:35;;;;;;;383.47;144.27;;;;;;;;;;5064895;28;20213;-48
2023/12/27 00:48:01;;;;;;;345.57;130.27;;;;;;;;;;5049132;28;20238;-47
2023/12/27 00:51:05;;;;;;;193.77;85.53;;;;;;;;;;5072512;28;20277;-47
2023/12/27 00:53:31;;;;;;;397.03;150.27;;;;;;;;;;5070238;28;20206;-47
2023/12/27 00:55:57;;;;;;;296.30;105.73;;;;;;;;;;5069473;28;20246;-47
2023/12/27 00:58:35;;;;;;;257.97;94.30;;;;;;;;;;5072778;28;20260;-47
2023/12/27 01:01:01;;;;;;;357.67;132.90;;;;;;;;;;5066021;28;20699;-47
2023/12/27 01:03:27;;;;;;;353.23;129.37;;;;;;;;;;5067001;28;20210;-47
2023/12/27 01:08:56;;;;;;;234.77;96.00;;;;;;;;;;5073799;28;20244;-47
2023/12/27 01:14:25;;;;;;;377.73;137.73;;;;;;;;;;5053589;28;20229;-48
2023/12/27 01:16:51;;;;;;;299.67;111.57;;;;;;;;;;5065057;28;20588;-47
2023/12/27 01:22:21;;;;;;;253.30;99.97;;;;;;;;;;5067427;28;20359;-47
2023/12/27 01:24:47;;;;;;;276.37;107.53;;;;;;;;;;5070789;28;20210;-47
2023/12/27 01:27:13;;;;;;;247.73;100.40;;;;;;;;;;5070940;28;20183;-47
2023/12/27 01:29:54;;;;;;;233.23;90.20;;;;;;;;;;5074882;28;20218;-47
2023/12/27 01:32:20;;;;;;;294.40;110.47;;;;;;;;;;5065046;28;20669;-47
2023/12/27 01:34:46;;;;;;;266.70;104.33;;;;;;;;;;5067036;28;20230;-47
2023/12/27 01:40:16;;;;;;;260.67;96.73;;;;;;;;;;5065220;28;20232;-47
2023/12/27 01:42:42;;;;;;;256.93;99.40;;;;;;;;;;5074322;28;20174;-47
2023/12/27 01:45:08;;;;;;;271.80;103.17;;;;;;;;;;5065671;28;20179;-47
2023/12/27 01:50:45;;;;;;;333.37;121.10;;;;;;;;;;5066231;28;20331;-47
2023/12/27 01:53:11;;;;;;;285.03;102.97;;;;;;;;;;5068228;28;20224;-47
2023/12/27 01:58:41;;;;;;;288.87;107.97;;;;;;;;;;5062181;28;20579;-47
2023/12/27 02:01:29;;;;;;;163.13;68.23;;;;;;;;;;5099416;22;20230;-50
2023/12/27 02:03:54;;;;;;;195.60;76.47;;;;;;;;;;5084296;28;20281;-50
2023/12/27 02:06:39;;;;;;;172.53;66.47;;;;;;;;;;5071701;28;20258;-51
2023/12/27 02:09:05;;;;;;;201.33;76.40;;;;;;;;;;5069329;28;20408;-50
2023/12/27 02:11:50;;;;;;;188.27;69.97;;;;;;;;;;5091840;28;20745;-51
2023/12/27 02:20:26;;;;;;;201.87;80.77;;;;;;;;;;5082006;28;20338;-51
2023/12/27 02:22:53;;;;;;;201.67;79.43;;;;;;;;;;5088026;28;20235;-52
2023/12/27 02:25:20;;;;;;;217.43;79.87;;;;;;;;;;5089749;28;20611;-51
2023/12/27 02:27:46;;;;;;;214.70;84.20;;;;;;;;;;5090451;28;20170;-51
2023/12/27 02:30:18;;;;;;;204.40;78.97;;;;;;;;;;5088374;28;20198;-51
2023/12/27 02:32:45;;;;;;;216.87;82.57;;;;;;;;;;5087541;28;20218;-51
2023/12/27 02:35:11;;;;;;;209.00;79.67;;;;;;;;;;5087454;28;20225;-51
2023/12/27 02:37:37;;;;;;;223.67;82.73;;;;;;;;;;5087287;28;20229;-52
2023/12/27 02:40:03;;;;;;;217.17;78.10;;;;;;;;;;5087164;28;20222;-52
2023/12/27 02:42:29;;;;;;;185.60;72.17;;;;;;;;;;5087796;28;20260;-51
2023/12/27 02:44:55;;;;;;;184.43;72.40;;;;;;;;;;5087488;28;20261;-52
2023/12/27 02:47:21;;;;;;;212.07;78.33;;;;;;;;;;5086077;28;20225;-51
2023/12/27 02:49:47;;;;;;;236.93;80.70;;;;;;;;;;5086997;28;20218;-51
2023/12/27 02:52:13;;;;;;;208.10;75.67;;;;;;;;;;5087342;28;20206;-51
2023/12/27 02:54:39;;;;;;;205.43;74.90;;;;;;;;;;5105958;28;20174;-52
2023/12/27 02:57:05;;;;;;;191.77;71.53;;;;;;;;;;5107622;28;20193;-50
2023/12/27 02:59:31;;;;;;;190.63;70.33;;;;;;;;;;5107077;28;20221;-51
2023/12/27 03:01:57;;;;;;;205.70;75.80;;;;;;;;;;5107652;28;20536;-51
2023/12/27 03:04:23;;;;;;;174.03;69.23;;;;;;;;;;5107462;28;20487;-51
2023/12/27 03:06:49;;;;;;;206.43;74.77;;;;;;;;;;5088941;28;20235;-51
2023/12/27 03:09:15;;;;;;;189.13;70.30;;;;;;;;;;5107382;28;20234;-51
2023/12/27 03:11:41;;;;;;;188.83;71.70;;;;;;;;;;5107168;28;20223;-51
2023/12/27 03:14:07;;;;;;;174.67;68.87;;;;;;;;;;5107069;28;20307;-51
2023/12/27 03:16:33;;;;;;;200.00;72.67;;;;;;;;;;5107110;28;20262;-51
2023/12/27 03:18:59;;;;;;;194.80;74.77;;;;;;;;;;5106998;28;20575;-51
2023/12/27 03:21:26;;;;;;;219.07;78.20;;;;;;;;;;5107463;28;20212;-52
2023/12/27 03:23:52;;;;;;;206.63;73.83;;;;;;;;;;5107790;28;20539;-51
2023/12/27 03:26:18;;;;;;;216.87;76.23;;;;;;;;;;5106995;28;20209;-51
2023/12/27 03:28:44;;;;;;;195.27;69.80;;;;;;;;;;5107119;28;20220;-51
2023/12/27 03:31:10;;;;;;;189.57;67.60;;;;;;;;;;5106674;28;20217;-51
2023/12/27 03:33:36;;;;;;;183.87;66.47;;;;;;;;;;5107083;28;20181;-52
2023/12/27 03:36:02;;;;;;;209.80;72.80;;;;;;;;;;5107515;28;20688;-51
2023/12/27 03:38:28;;;;;;;196.43;69.03;;;;;;;;;;5106871;28;20232;-51
2023/12/27 03:40:54;;;;;;;167.87;64.70;;;;;;;;;;5106926;28;20237;-52
2023/12/27 03:43:20;;;;;;;192.90;71.37;;;;;;;;;;5106851;28;20220;-51
2023/12/27 03:45:46;;;;;;;186.33;64.70;;;;;;;;;;5106932;28;20683;-51
2023/12/27 03:48:12;;;;;;;205.27;66.60;;;;;;;;;;5106968;28;20177;-51
2023/12/27 03:50:38;;;;;;;204.93;62.33;;;;;;;;;;5106511;28;20721;-51
2023/12/27 03:53:04;;;;;;;166.93;51.53;;;;;;;;;;5106847;28;20217;-51
2023/12/27 03:55:30;;;;;;;172.13;50.33;;;;;;;;;;5106641;28;20232;-52
2023/12/27 03:57:56;;;;;;;186.13;53.07;;;;;;;;;;5106721;28;20333;-52
2023/12/27 04:00:22;;;;;;;160.40;48.83;;;;;;;;;;5107129;28;20708;-51
2023/12/27 04:02:48;;;;;;;185.93;52.93;;;;;;;;;;5106657;28;20636;-51
2023/12/27 04:05:14;;;;;;;177.20;51.07;;;;;;;;;;5106353;28;20213;-51
2023/12/27 04:07:40;;;;;;;180.07;46.80;;;;;;;;;;5106471;28;20365;-51
2023/12/27 04:10:07;;;;;;;159.93;47.73;;;;;;;;;;5110012;28;20216;-51
2023/12/27 04:12:32;;;;;;;193.87;52.23;;;;;;;;;;5110448;28;20256;-51
2023/12/27 04:14:59;;;;;;;160.80;43.73;;;;;;;;;;5111187;28;20256;-52
2023/12/27 04:17:28;;;;;;;193.57;49.37;;;;;;;;;;5110617;28;20281;-51
2023/12/27 04:19:54;;;;;;;180.53;48.07;;;;;;;;;;5110602;28;20274;-51
2023/12/27 04:22:20;;;;;;;181.90;45.33;;;;;;;;;;5110218;28;20214;-51
2023/12/27 04:24:46;;;;;;;183.13;44.00;;;;;;;;;;5110296;28;20209;-52
2023/12/27 04:27:12;;;;;;;158.30;37.63;;;;;;;;;;5110619;28;20177;-51
2023/12/27 04:29:38;;;;;;;172.53;40.33;;;;;;;;;;5110136;28;20247;-51
2023/12/27 04:32:04;;;;;;;168.57;38.07;;;;;;;;;;5110379;28;20217;-51
2023/12/27 04:34:30;;;;;;;161.37;35.87;;;;;;;;;;5110056;28;20221;-51
2023/12/27 04:36:56;;;;;;;163.67;35.53;;;;;;;;;;5110466;28;20229;-51
2023/12/27 04:39:22;;;;;;;192.27;39.97;;;;;;;;;;5110453;28;20617;-51
2023/12/27 04:41:48;;;;;;;189.67;37.77;;;;;;;;;;5110189;28;20217;-51
2023/12/27 04:44:14;;;;;;;170.97;35.33;;;;;;;;;;5110052;28;20220;-51
2023/12/27 04:46:40;;;;;;;169.33;34.03;;;;;;;;;;5110120;28;20224;-51
2023/12/27 04:49:08;;;;;;;151.13;30.47;;;;;;;;;;5110035;28;20794;-52
2023/12/27 04:51:34;;;;;;;149.70;28.40;;;;;;;;;;5110158;28;20178;-52
2023/12/27 04:54:01;;;;;;;180.50;34.43;;;;;;;;;;5110387;28;20386;-52
2023/12/27 04:56:28;;;;;;;152.47;28.50;;;;;;;;;;5109831;28;20232;-51
2023/12/27 04:58:54;;;;;;;190.93;35.87;;;;;;;;;;5109618;28;20210;-52
2023/12/27 05:01:20;;;;;;;183.60;33.53;;;;;;;;;;5109568;28;20221;-52
2023/12/27 05:03:46;;;;;;;179.03;33.40;;;;;;;;;;5109382;27;20206;-50
2023/12/27 05:06:13;;;;;;;178.10;31.83;;;;;;;;;;5109952;28;20284;-50
2023/12/27 05:08:40;;;;;;;184.80;33.97;;;;;;;;;;5109818;28;20347;-50
2023/12/27 05:11:20;;;;;;;149.97;28.67;;;;;;;;;;5109700;28;20225;-50
2023/12/27 05:13:46;;;;;;;133.20;24.83;;;;;;;;;;5109505;28;20209;-50
2023/12/27 05:16:12;;;;;;;142.57;27.40;;;;;;;;;;5109771;28;20687;-51
2023/12/27 05:18:39;;;;;;;177.03;32.20;;;;;;;;;;5109543;28;20549;-50
2023/12/27 05:21:06;;;;;;;178.17;31.87;;;;;;;;;;5109205;28;20189;-51
2023/12/27 05:23:32;;;;;;;170.40;30.83;;;;;;;;;;5109381;28;20721;-51
2023/12/27 05:25:58;;;;;;;145.33;25.17;;;;;;;;;;5109345;28;20723;-51
2023/12/27 05:28:24;;;;;;;149.57;29.17;;;;;;;;;;5109206;28;20213;-51
2023/12/27 05:30:50;;;;;;;146.07;27.33;;;;;;;;;;5109367;28;20221;-51
2023/12/27 05:33:16;;;;;;;152.37;29.30;;;;;;;;;;5109778;28;20552;-51
2023/12/27 05:35:42;;;;;;;157.50;27.57;;;;;;;;;;5109290;28;20205;-52
2023/12/27 05:38:08;;;;;;;168.97;30.53;;;;;;;;;;5109062;28;20640;-51
2023/12/27 05:40:34;;;;;;;177.13;31.67;;;;;;;;;;5108532;28;20217;-51
2023/12/27 05:43:00;;;;;;;135.40;27.53;;;;;;;;;;5108896;28;20213;-52
2023/12/27 05:45:26;;;;;;;168.37;30.63;;;;;;;;;;5108986;28;20548;-52
2023/12/27 05:47:52;;;;;;;130.07;23.83;;;;;;;;;;5109347;28;20652;-52
2023/12/27 05:50:18;;;;;;;151.70;27.10;;;;;;;;;;5108743;28;20761;-52
2023/12/27 05:52:44;;;;;;;128.77;21.87;;;;;;;;;;5109101;28;20729;-52
2023/12/27 05:55:10;;;;;;;186.80;31.87;;;;;;;;;;5108315;28;20703;-51
2023/12/27 05:57:36;;;;;;;150.63;27.20;;;;;;;;;;5108858;28;20271;-52
2023/12/27 06:00:02;;;;;;;162.17;29.30;;;;;;;;;;5108995;28;20683;-52
2023/12/27 06:02:29;;;;;;;179.37;31.00;;;;;;;;;;5108598;28;20213;-51
2023/12/27 06:04:58;;;;;;;174.60;30.80;;;;;;;;;;5108497;28;20702;-52
2023/12/27 06:07:24;;;;;;;165.53;29.47;;;;;;;;;;5108676;28;20213;-52
2023/12/27 06:09:49;;;;;;;120.00;20.73;;;;;;;;;;5108553;28;20213;-52
2023/12/27 06:12:15;;;;;;;160.53;28.23;;;;;;;;;;5108758;28;20169;-52
2023/12/27 06:14:41;;;;;;;193.60;33.90;;;;;;;;;;5107821;28;20628;-52
2023/12/27 06:17:07;;;;;;;171.03;31.70;;;;;;;;;;5107985;28;20424;-52
2023/12/27 06:19:36;;;;;;;188.57;34.30;;;;;;;;;;5089620;28;20691;-50
2023/12/27 06:22:02;;;;;;;161.67;28.77;;;;;;;;;;5108208;28;20346;-50
2023/12/27 06:24:28;;;;;;;161.03;26.70;;;;;;;;;;5108616;28;20190;-50
2023/12/27 06:26:54;;;;;;;177.43;30.00;;;;;;;;;;5108854;28;20407;-51
2023/12/27 06:29:20;;;;;;;161.87;27.90;;;;;;;;;;5108036;28;20298;-52
2023/12/27 06:31:46;;;;;;;195.13;33.83;;;;;;;;;;5107069;28;20583;-51
2023/12/27 06:34:12;;;;;;;185.20;32.90;;;;;;;;;;5107877;28;20236;-50
2023/12/27 06:36:39;;;;;;;170.57;29.50;;;;;;;;;;5107704;28;20246;-50
2023/12/27 06:39:08;;;;;;;175.40;30.33;;;;;;;;;;5108125;28;20224;-50
2023/12/27 06:41:34;;;;;;;154.37;25.93;;;;;;;;;;5107975;28;20591;-51
2023/12/27 06:44:00;;;;;;;135.73;21.73;;;;;;;;;;5107576;28;20227;-52
2023/12/27 06:46:26;;;;;;;154.57;25.20;;;;;;;;;;5108090;28;20708;-51
2023/12/27 06:48:52;;;;;;;142.10;25.00;;;;;;;;;;5108162;28;20217;-51
2023/12/27 06:51:18;;;;;;;161.20;27.97;;;;;;;;;;5108024;28;20227;-51
2023/12/27 06:53:44;;;;;;;147.70;26.17;;;;;;;;;;5107262;28;20239;-51
2023/12/27 06:56:12;;;;;;;132.67;24.00;;;;;;;;;;5107563;28;20244;-50
2023/12/27 06:58:38;;;;;;;183.53;30.77;;;;;;;;;;5107456;28;20620;-51
2023/12/27 07:01:04;;;;;;;173.77;28.17;;;;;;;;;;5107689;28;20699;-51
2023/12/27 07:03:30;;;;;;;142.77;23.33;;;;;;;;;;5107375;28;20181;-51
2023/12/27 07:05:56;;;;;;;162.67;28.37;;;;;;;;;;5107710;28;20227;-51
2023/12/27 07:08:22;;;;;;;206.60;34.17;;;;;;;;;;5107349;28;20248;-51
2023/12/27 07:10:48;;;;;;;180.07;28.27;;;;;;;;;;5107027;28;20217;-51
2023/12/27 07:13:14;;;;;;;177.47;30.33;;;;;;;;;;5107019;28;20209;-51
2023/12/27 07:15:40;;;;;;;159.83;25.43;;;;;;;;;;5107262;28;20248;-51
2023/12/27 07:18:06;;;;;;;163.40;28.13;;;;;;;;;;5107331;28;20612;-50
2023/12/27 07:20:32;;;;;;;143.73;24.00;;;;;;;;;;5107005;28;20240;-51
2023/12/27 07:22:58;;;;;;;188.20;29.43;;;;;;;;;;5107133;28;20247;-50
2023/12/27 07:25:25;;;;;;;159.43;25.87;;;;;;;;;;5107181;28;20244;-51
2023/12/27 07:27:51;;;;;;;164.43;27.03;;;;;;;;;;5107051;28;20592;-51
2023/12/27 07:30:17;;;;;;;171.63;28.07;;;;;;;;;;5107100;28;20201;-51
2023/12/27 07:32:43;;;;;;;202.17;32.80;;;;;;;;;;5106843;28;20205;-51
2023/12/27 07:35:09;;;;;;;162.50;26.53;;;;;;;;;;5106954;28;20559;-51
2023/12/27 07:37:35;;;;;;;162.30;25.07;;;;;;;;;;5106987;28;20243;-51
2023/12/27 07:40:01;;;;;;;143.60;23.37;;;;;;;;;;5106957;28;20674;-51
2023/12/27 07:42:27;;;;;;;145.67;23.53;;;;;;;;;;5106949;28;20208;-52
2023/12/27 07:44:53;;;;;;;154.77;24.53;;;;;;;;;;5088931;28;20165;-50
2023/12/27 07:47:18;;;;;;;169.33;27.37;;;;;;;;;;5105546;28;20270;-49
2023/12/27 07:49:44;;;;;;;155.23;24.30;;;;;;;;;;5106171;28;20228;-50
2023/12/27 07:52:10;;;;;;;150.00;24.03;;;;;;;;;;5106719;28;20217;-50
2023/12/27 07:54:37;;;;;;;193.53;30.60;;;;;;;;;;5106228;28;20678;-49
2023/12/27 07:57:03;;;;;;;146.27;23.43;;;;;;;;;;5107041;28;20689;-50
2023/12/27 07:59:31;;;;;;;158.90;25.60;;;;;;;;;;5106629;28;20714;-52
2023/12/27 08:01:56;;;;;;;186.87;31.23;;;;;;;;;;5096300;28;20442;-52
2023/12/27 08:04:22;;;;;;;271.17;46.57;;;;;;;;;;5098202;28;20802;-51
2023/12/27 08:06:49;;;;;;;259.50;45.87;;;;;;;;;;5091988;27;20958;-52
2023/12/27 08:09:15;;;;;;;224.10;37.10;;;;;;;;;;5098563;28;20587;-52
2023/12/27 08:11:41;;;;;;;229.50;38.17;;;;;;;;;;5099315;27;20212;-52
2023/12/27 08:14:07;;;;;;;186.33;31.00;;;;;;;;;;5093355;27;20241;-51
2023/12/27 08:16:33;;;;;;;193.23;33.40;;;;;;;;;;5092442;28;20289;-51
2023/12/27 08:18:59;;;;;;;193.90;31.70;;;;;;;;;;5097339;27;20229;-51
2023/12/27 08:21:25;;;;;;;188.17;32.17;;;;;;;;;;5102752;27;20236;-51
2023/12/27 08:23:51;;;;;;;249.17;44.30;;;;;;;;;;5103830;28;20174;-52
2023/12/27 08:26:17;;;;;;;310.70;54.33;;;;;;;;;;5098496;27;20223;-52
2023/12/27 08:28:43;;;;;;;210.27;35.67;;;;;;;;;;5099661;27;20209;-52
2023/12/27 08:31:09;;;;;;;242.43;41.80;;;;;;;;;;5103820;27;21613;-52
2023/12/27 08:33:35;;;;;;;277.80;48.27;;;;;;;;;;5093986;28;20239;-52
2023/12/27 08:36:01;;;;;;;210.63;37.37;;;;;;;;;;5099695;28;20231;-52
2023/12/27 08:38:27;;;;;;;185.20;30.20;;;;;;;;;;5093734;27;20678;-52
2023/12/27 08:40:53;;;;;;;202.43;34.27;;;;;;;;;;5098907;28;20209;-52
2023/12/27 08:43:19;;;;;;;380.83;72.00;;;;;;;;;;5090925;28;20248;-52
2023/12/27 08:45:46;;;;;;;216.80;34.87;;;;;;;;;;5096894;27;20217;-52
2023/12/27 08:48:12;;;;;;;246.40;42.00;;;;;;;;;;5104931;28;20169;-53
2023/12/27 08:50:40;;;;;;;179.97;29.30;;;;;;;;;;5109878;28;20492;-53
2023/12/27 08:53:06;;;;;;;227.33;38.23;;;;;;;;;;5100706;27;20221;-53
2023/12/27 08:55:32;;;;;;;219.50;38.13;;;;;;;;;;5092786;27;20225;-52
2023/12/27 08:57:58;;;;;;;237.47;40.87;;;;;;;;;;5095551;27;20213;-52
2023/12/27 09:00:24;;;;;;;269.07;44.47;;;;;;;;;;5096006;27;20244;-52
2023/12/27 09:02:50;;;;;;;230.70;40.40;;;;;;;;;;5082628;28;20218;-52
2023/12/27 09:05:16;;;;;;;240.73;42.03;;;;;;;;;;5092180;27;20232;-52
2023/12/27 09:07:42;;;;;;;187.63;31.63;;;;;;;;;;5109640;27;20401;-52
2023/12/27 09:10:08;;;;;;;258.43;46.27;;;;;;;;;;5102196;27;20292;-52
2023/12/27 09:12:34;;;;;;;182.47;31.87;;;;;;;;;;5102794;28;20178;-52
2023/12/27 09:15:00;;;;;;;185.97;31.00;;;;;;;;;;5098570;28;20709;-50
2023/12/27 09:17:26;;;;;;;183.97;33.17;;;;;;;;;;5102007;28;20213;-52
2023/12/27 09:19:52;;;;;;;209.00;36.67;;;;;;;;;;5098747;28;20209;-51
2023/12/27 09:22:18;;;;;;;266.67;49.03;;;;;;;;;;5098899;27;20209;-51
2023/12/27 09:24:44;;;;;;;214.50;35.87;;;;;;;;;;5096451;27;20241;-52
2023/12/27 09:27:17;;;;;;;276.23;48.43;;;;;;;;;;5101955;27;20283;-52
2023/12/27 09:29:43;;;;;;;175.27;29.40;;;;;;;;;;5105669;27;20601;-52
2023/12/27 09:32:09;;;;;;;176.03;30.20;;;;;;;;;;5108667;27;20216;-52
2023/12/27 09:34:35;;;;;;;152.20;24.93;;;;;;;;;;5107668;27;20213;-52
2023/12/27 09:37:03;;;;;;;192.30;34.57;;;;;;;;;;5096500;27;20224;-52
2023/12/27 09:39:29;;;;;;;325.83;59.67;;;;;;;;;;5084967;28;20999;-52
2023/12/27 09:41:55;;;;;;;184.77;30.77;;;;;;;;;;5097684;28;20178;-52
2023/12/27 09:44:21;;;;;;;260.23;45.20;;;;;;;;;;5099511;28;20241;-52
2023/12/27 09:46:47;;;;;;;226.80;39.07;;;;;;;;;;5096811;27;20427;-51
2023/12/27 09:49:13;;;;;;;252.33;48.77;;;;;;;;;;5093753;28;20213;-52
2023/12/27 09:51:39;;;;;;;169.90;29.50;;;;;;;;;;5099667;27;20693;-52
2023/12/27 09:54:06;;;;;;;172.53;31.57;;;;;;;;;;5101324;28;20616;-52
2023/12/27 09:56:32;;;;;;;237.20;40.70;;;;;;;;;;5095828;27;20233;-52
2023/12/27 09:58:59;;;;;;;245.93;43.17;;;;;;;;;;5084162;27;20240;-52
2023/12/27 10:01:25;;;;;;;270.70;46.87;;;;;;;;;;5072835;28;21111;-51
2023/12/27 10:04:03;;;;;;;185.30;31.73;;;;;;;;;;5080844;27;20205;-52
2023/12/27 10:06:29;;;;;;;217.63;35.73;;;;;;;;;;5095788;28;20184;-52
2023/12/27 10:08:55;;;;;;;240.17;43.93;;;;;;;;;;5089123;28;20182;-52
2023/12/27 10:11:22;;;;;;;213.80;37.60;;;;;;;;;;5084397;27;20218;-52
2023/12/27 10:13:50;;;;;;;181.10;30.83;;;;;;;;;;5094166;28;20841;-51
2023/12/27 10:16:17;;;;;;;262.17;49.20;;;;;;;;;;5092802;27;20219;-52
2023/12/27 10:18:45;;;;;;;199.43;33.33;;;;;;;;;;5095646;28;20600;-52
2023/12/27 10:21:11;;;;;;;199.67;32.50;;;;;;;;;;5092461;28;20213;-52
2023/12/27 10:23:37;;;;;;;288.27;50.87;;;;;;;;;;5093656;28;20222;-52
2023/12/27 10:26:03;;;;;;;184.20;30.90;;;;;;;;;;5087691;28;20207;-52
2023/12/27 10:28:29;;;;;;;237.17;43.30;;;;;;;;;;5095460;28;20679;-52
2023/12/27 10:30:55;;;;;;;225.17;40.77;;;;;;;;;;5090839;28;20217;-52
2023/12/27 10:33:21;;;;;;;290.70;55.70;;;;;;;;;;5094150;28;20276;-52
2023/12/27 10:35:47;;;;;;;230.83;39.60;;;;;;;;;;5080216;28;20252;-52
2023/12/27 10:38:14;;;;;;;265.90;47.23;;;;;;;;;;5087487;28;20655;-52
2023/12/27 10:40:40;;;;;;;201.33;34.73;;;;;;;;;;5087717;28;20739;-52
2023/12/27 10:43:06;;;;;;;230.17;40.57;;;;;;;;;;5100228;28;20571;-52
2023/12/27 10:45:32;;;;;;;232.83;42.37;;;;;;;;;;5099206;28;20233;-51
2023/12/27 10:47:59;;;;;;;203.13;35.77;;;;;;;;;;5102729;28;20170;-52
2023/12/27 10:50:26;;;;;;;221.03;38.93;;;;;;;;;;5094546;28;20224;-52
2023/12/27 10:52:58;;;;;;;194.83;33.53;;;;;;;;;;5102537;28;20210;-52
2023/12/27 10:55:27;;;;;;;231.20;44.50;;;;;;;;;;5097516;28;20296;-52
2023/12/27 10:57:54;;;;;;;239.33;41.87;;;;;;;;;;5101330;28;20221;-52
2023/12/27 11:00:21;;;;;;;235.97;44.30;;;;;;;;;;5098840;28;20259;-52
2023/12/27 11:02:47;;;;;;;189.60;33.00;;;;;;;;;;5087236;28;20304;-52
2023/12/27 11:05:15;;;;;;;273.60;53.20;;;;;;;;;;5096727;28;20225;-52
2023/12/27 11:07:43;;;;;;;214.57;37.97;;;;;;;;;;5097945;27;20259;-52
2023/12/27 11:10:10;;;;;;;190.40;31.77;;;;;;;;;;5095581;28;21321;-51
2023/12/27 11:12:38;;;;;;;220.33;39.90;;;;;;;;;;5094918;28;20603;-52
2023/12/27 11:15:04;;;;;;;188.10;32.40;;;;;;;;;;5098768;28;20173;-52
2023/12/27 11:17:31;;;;;;;235.37;43.93;;;;;;;;;;5096725;28;20312;-52
2023/12/27 11:19:57;;;;;;;255.37;47.77;;;;;;;;;;5098388;28;20757;-52
2023/12/27 11:22:24;;;;;;;248.20;46.57;;;;;;;;;;5099556;28;20221;-52
2023/12/27 11:24:50;;;;;;;221.07;40.97;;;;;;;;;;5077748;28;20255;-52
2023/12/27 11:27:19;;;;;;;222.73;41.07;;;;;;;;;;5101793;28;20233;-52
2023/12/27 11:29:46;;;;;;;175.87;31.77;;;;;;;;;;5100865;28;20225;-52
2023/12/27 11:32:12;;;;;;;209.50;38.50;;;;;;;;;;5098713;28;20717;-52
2023/12/27 11:34:38;;;;;;;199.63;37.43;;;;;;;;;;5098178;28;20227;-52
2023/12/27 11:37:04;;;;;;;218.60;42.20;;;;;;;;;;5099489;28;20598;-52
2023/12/27 11:39:30;;;;;;;332.53;72.33;;;;;;;;;;5096325;28;20193;-52
2023/12/27 11:41:58;;;;;;;288.57;58.23;;;;;;;;;;5092719;28;20280;-52
2023/12/27 11:44:24;;;;;;;274.37;56.70;;;;;;;;;;5091185;28;20217;-51
2023/12/27 11:46:50;;;;;;;188.43;38.87;;;;;;;;;;5095516;28;20212;-52
2023/12/27 11:49:19;;;;;;;220.97;50.70;;;;;;;;;;5083178;28;20908;-52
2023/12/27 11:51:45;;;;;;;301.10;104.27;;;;;;;;;;5090231;28;20225;-51
2023/12/27 11:54:21;;;;;;;334.70;128.17;;;;;;;;;;5091866;28;20182;-52
2023/12/27 11:56:47;;;;;;;393.77;145.33;;;;;;;;;;5093464;28;20242;-52
2023/12/27 11:59:13;;;;;;;461.93;174.63;;;;;;;;;;5093800;28;20214;-52
2023/12/27 12:01:40;;;;;;;434.07;161.23;;;;;;;;;;5087275;28;20588;-52
